sensor_id;sensor_type;location;lat;lon;timestamp;pressure;altitude;pressure_sealevel;temperature;humidity
69971;BME280;57301;50.328;8.542;2023-05-16T00:01:19;98311.34;;;10.18;97.01
69971;BME280;57301;50.328;8.542;2023-05-16T00:03:46;98309.13;;;9.88;98.87
69971;BME280;57301;50.328;8.542;2023-05-16T00:06:12;98309.00;;;9.72;99.08
69971;BME280;57301;50.328;8.542;2023-05-16T00:08:40;98304.50;;;9.72;98.88
69971;BME280;57301;50.328;8.542;2023-05-16T00:11:07;98312.72;;;9.79;97.75
69971;BME280;57301;50.328;8.542;2023-05-16T00:13:34;98303.84;;;9.70;98.36
69971;BME280;57301;50.328;8.542;2023-05-16T00:16:00;98310.13;;;9.69;98.22
69971;BME280;57301;50.328;8.542;2023-05-16T00:18:28;98306.50;;;9.70;98.19
69971;BME280;57301;50.328;8.542;2023-05-16T00:20:54;98308.69;;;9.75;97.91
69971;BME280;57301;50.328;8.542;2023-05-16T00:23:21;98302.69;;;9.73;98.60
69971;BME280;57301;50.328;8.542;2023-05-16T00:25:47;98306.78;;;9.67;98.89
69971;BME280;57301;50.328;8.542;2023-05-16T00:28:14;98308.16;;;9.71;98.40
69971;BME280;57301;50.328;8.542;2023-05-16T00:30:41;98309.91;;;9.62;99.03
69971;BME280;57301;50.328;8.542;2023-05-16T00:33:07;98302.31;;;9.67;99.31
69971;BME280;57301;50.328;8.542;2023-05-16T00:35:34;98306.94;;;9.83;99.13
69971;BME280;57301;50.328;8.542;2023-05-16T00:38:00;98306.47;;;9.88;98.67
69971;BME280;57301;50.328;8.542;2023-05-16T00:40:27;98308.16;;;9.89;97.88
69971;BME280;57301;50.328;8.542;2023-05-16T00:42:54;98308.91;;;9.81;98.33
69971;BME280;57301;50.328;8.542;2023-05-16T00:45:21;98301.84;;;9.72;98.08
69971;BME280;57301;50.328;8.542;2023-05-16T00:47:47;98302.69;;;9.73;98.41
69971;BME280;57301;50.328;8.542;2023-05-16T00:50:15;98307.47;;;9.69;98.07
69971;BME280;57301;50.328;8.542;2023-05-16T00:52:41;98309.00;;;9.72;97.82
69971;BME280;57301;50.328;8.542;2023-05-16T00:55:08;98308.22;;;9.79;97.69
69971;BME280;57301;50.328;8.542;2023-05-16T00:57:38;98311.13;;;9.68;97.97
69971;BME280;57301;50.328;8.542;2023-05-16T01:00:06;98313.50;;;9.71;98.66
69971;BME280;57301;50.328;8.542;2023-05-16T01:02:36;98316.59;;;9.66;99.07
69971;BME280;57301;50.328;8.542;2023-05-16T01:05:03;98311.50;;;9.73;99.76
69971;BME280;57301;50.328;8.542;2023-05-16T01:07:36;98322.47;;;9.70;100.00
69971;BME280;57301;50.328;8.542;2023-05-16T01:10:04;98321.53;;;9.79;99.79
69971;BME280;57301;50.328;8.542;2023-05-16T01:12:39;98316.81;;;9.91;99.85
69971;BME280;57301;50.328;8.542;2023-05-16T01:15:35;98316.00;;;9.90;99.37
69971;BME280;57301;50.328;8.542;2023-05-16T01:18:35;98319.72;;;9.80;99.44
69971;BME280;57301;50.328;8.542;2023-05-16T01:21:11;98310.44;;;9.84;99.46
69971;BME280;57301;50.328;8.542;2023-05-16T01:26:27;98315.44;;;9.87;99.92
69971;BME280;57301;50.328;8.542;2023-05-16T01:28:54;98317.28;;;9.86;99.61
69971;BME280;57301;50.328;8.542;2023-05-16T01:31:22;98317.44;;;9.85;99.60
69971;BME280;57301;50.328;8.542;2023-05-16T01:33:48;98326.31;;;9.93;99.39
69971;BME280;57301;50.328;8.542;2023-05-16T01:36:32;98333.56;;;10.01;99.22
69971;BME280;57301;50.328;8.542;2023-05-16T01:41:55;98332.16;;;10.15;99.51
69971;BME280;57301;50.328;8.542;2023-05-16T01:44:36;98327.84;;;10.32;98.30
69971;BME280;57301;50.328;8.542;2023-05-16T01:47:11;98332.03;;;10.42;97.92
69971;BME280;57301;50.328;8.542;2023-05-16T01:49:48;98332.16;;;10.33;98.55
69971;BME280;57301;50.328;8.542;2023-05-16T01:53:06;98330.00;;;10.36;98.28
69971;BME280;57301;50.328;8.542;2023-05-16T01:55:10;98327.84;;;10.32;99.63
69971;BME280;57301;50.328;8.542;2023-05-16T01:57:41;98327.66;;;10.33;99.29
69971;BME280;57301;50.328;8.542;2023-05-16T02:00:09;98324.66;;;10.36;99.79
69971;BME280;57301;50.328;8.542;2023-05-16T02:02:35;98325.56;;;10.45;99.88
69971;BME280;57301;50.328;8.542;2023-05-16T02:05:02;98325.63;;;10.53;99.77
69971;BME280;57301;50.328;8.542;2023-05-16T02:07:28;98320.47;;;10.52;100.00
69971;BME280;57301;50.328;8.542;2023-05-16T02:09:55;98323.13;;;10.52;100.00
69971;BME280;57301;50.328;8.542;2023-05-16T02:12:21;98319.47;;;10.53;100.00
69971;BME280;57301;50.328;8.542;2023-05-16T02:14:48;98319.47;;;10.53;100.00
69971;BME280;57301;50.328;8.542;2023-05-16T02:17:14;98321.59;;;10.49;100.00
69971;BME280;57301;50.328;8.542;2023-05-16T02:19:41;98327.09;;;10.47;100.00
69971;BME280;57301;50.328;8.542;2023-05-16T02:22:07;98324.25;;;10.49;100.00
69971;BME280;57301;50.328;8.542;2023-05-16T02:24:34;98321.75;;;10.47;100.00
69971;BME280;57301;50.328;8.542;2023-05-16T02:27:01;98325.25;;;10.48;100.00
69971;BME280;57301;50.328;8.542;2023-05-16T02:29:27;98324.16;;;10.59;99.87
69971;BME280;57301;50.328;8.542;2023-05-16T02:31:54;98319.03;;;10.65;99.93
69971;BME280;57301;50.328;8.542;2023-05-16T02:34:21;98320.03;;;10.64;99.35
69971;BME280;57301;50.328;8.542;2023-05-16T02:36:47;98318.19;;;10.65;98.45
69971;BME280;57301;50.328;8.542;2023-05-16T02:39:14;98319.03;;;10.65;98.44
69971;BME280;57301;50.328;8.542;2023-05-16T02:41:40;98320.19;;;10.63;98.19
69971;BME280;57301;50.328;8.542;2023-05-16T02:44:07;98332.69;;;10.62;98.95
69971;BME280;57301;50.328;8.542;2023-05-16T02:46:33;98327.69;;;10.67;98.04
69971;BME280;57301;50.328;8.542;2023-05-16T02:49:00;98335.44;;;10.79;97.98
69971;BME280;57301;50.328;8.542;2023-05-16T02:51:27;98337.44;;;10.76;97.84
69971;BME280;57301;50.328;8.542;2023-05-16T02:53:54;98332.44;;;10.82;98.18
69971;BME280;57301;50.328;8.542;2023-05-16T02:56:25;98339.47;;;10.83;97.70
69971;BME280;57301;50.328;8.542;2023-05-16T02:58:52;98341.31;;;10.90;97.05
69971;BME280;57301;50.328;8.542;2023-05-16T03:01:19;98333.47;;;10.89;97.39
69971;BME280;57301;50.328;8.542;2023-05-16T03:03:46;98336.97;;;10.81;96.94
69971;BME280;57301;50.328;8.542;2023-05-16T03:06:13;98350.28;;;10.81;97.19
69971;BME280;57301;50.328;8.542;2023-05-16T03:08:39;98343.44;;;10.79;97.11
69971;BME280;57301;50.328;8.542;2023-05-16T03:11:06;98346.16;;;10.87;96.97
69971;BME280;57301;50.328;8.542;2023-05-16T03:13:32;98342.50;;;10.88;96.29
69971;BME280;57301;50.328;8.542;2023-05-16T03:15:59;98349.16;;;10.92;96.58
69971;BME280;57301;50.328;8.542;2023-05-16T03:18:26;98342.28;;;10.81;96.35
69971;BME280;57301;50.328;8.542;2023-05-16T03:20:52;98344.97;;;10.81;96.26
69971;BME280;57301;50.328;8.542;2023-05-16T03:23:19;98352.47;;;10.86;96.12
69971;BME280;57301;50.328;8.542;2023-05-16T03:25:46;98352.47;;;10.86;95.89
69971;BME280;57301;50.328;8.542;2023-05-16T03:28:15;98346.94;;;10.79;96.47
69971;BME280;57301;50.328;8.542;2023-05-16T03:30:42;98352.59;;;10.76;96.54
69971;BME280;57301;50.328;8.542;2023-05-16T03:33:08;98354.25;;;10.77;96.07
69971;BME280;57301;50.328;8.542;2023-05-16T03:35:35;98349.22;;;10.74;96.08
69971;BME280;57301;50.328;8.542;2023-05-16T03:38:02;98350.59;;;10.78;96.60
69971;BME280;57301;50.328;8.542;2023-05-16T03:40:28;98348.06;;;10.68;96.38
69971;BME280;57301;50.328;8.542;2023-05-16T03:42:55;98353.91;;;10.72;96.68
69971;BME280;57301;50.328;8.542;2023-05-16T03:45:21;98345.47;;;10.85;96.04
69971;BME280;57301;50.328;8.542;2023-05-16T03:47:48;98349.94;;;10.76;96.24
69971;BME280;57301;50.328;8.542;2023-05-16T03:50:15;98351.56;;;10.69;96.12
69971;BME280;57301;50.328;8.542;2023-05-16T03:52:42;98350.72;;;10.68;96.15
69971;BME280;57301;50.328;8.542;2023-05-16T03:55:09;98349.84;;;10.68;96.82
69971;BME280;57301;50.328;8.542;2023-05-16T03:57:36;98346.53;;;10.66;96.21
69971;BME280;57301;50.328;8.542;2023-05-16T04:00:07;98347.53;;;10.65;96.47
69971;BME280;57301;50.328;8.542;2023-05-16T04:02:33;98346.31;;;10.59;96.46
69971;BME280;57301;50.328;8.542;2023-05-16T04:05:00;98347.16;;;10.60;97.50
69971;BME280;57301;50.328;8.542;2023-05-16T04:07:27;98350.66;;;10.60;97.57
69971;BME280;57301;50.328;8.542;2023-05-16T04:09:54;98358.28;;;10.55;97.40
69971;BME280;57301;50.328;8.542;2023-05-16T04:12:21;98362.53;;;10.66;97.42
69971;BME280;57301;50.328;8.542;2023-05-16T04:14:48;98356.69;;;10.62;98.43
69971;BME280;57301;50.328;8.542;2023-05-16T04:17:14;98364.00;;;10.60;98.50
69971;BME280;57301;50.328;8.542;2023-05-16T04:19:41;98361.16;;;10.62;98.63
69971;BME280;57301;50.328;8.542;2023-05-16T04:22:07;98359.97;;;10.56;99.03
69971;BME280;57301;50.328;8.542;2023-05-16T04:24:34;98364.94;;;10.51;98.28
69971;BME280;57301;50.328;8.542;2023-05-16T04:27:01;98361.44;;;10.51;99.07
69971;BME280;57301;50.328;8.542;2023-05-16T04:29:27;98361.94;;;10.54;98.99
69971;BME280;57301;50.328;8.542;2023-05-16T04:31:54;98372.81;;;10.61;98.30
69971;BME280;57301;50.328;8.542;2023-05-16T04:34:21;98372.16;;;10.59;98.53
69971;BME280;57301;50.328;8.542;2023-05-16T04:36:48;98375.81;;;10.58;98.51
69971;BME280;57301;50.328;8.542;2023-05-16T04:39:15;98374.19;;;10.65;97.84
69971;BME280;57301;50.328;8.542;2023-05-16T04:41:41;98382.34;;;10.63;98.81
69971;BME280;57301;50.328;8.542;2023-05-16T04:44:07;98384.84;;;10.65;98.11
69971;BME280;57301;50.328;8.542;2023-05-16T04:46:36;98384.47;;;10.60;98.58
69971;BME280;57301;50.328;8.542;2023-05-16T04:49:02;98386.91;;;10.71;98.65
69971;BME280;57301;50.328;8.542;2023-05-16T04:51:29;98388.09;;;10.76;98.42
69971;BME280;57301;50.328;8.542;2023-05-16T04:53:58;98394.56;;;10.74;98.28
69971;BME280;57301;50.328;8.542;2023-05-16T04:56:24;98399.19;;;10.64;96.74
69971;BME280;57301;50.328;8.542;2023-05-16T04:58:52;98396.34;;;10.65;96.89
69971;BME280;57301;50.328;8.542;2023-05-16T05:01:19;98407.34;;;10.62;95.99
69971;BME280;57301;50.328;8.542;2023-05-16T05:03:46;98413.34;;;10.64;95.63
69971;BME280;57301;50.328;8.542;2023-05-16T05:06:13;98406.19;;;10.65;95.30
69971;BME280;57301;50.328;8.542;2023-05-16T05:08:40;98414.34;;;10.63;95.26
69971;BME280;57301;50.328;8.542;2023-05-16T05:11:06;98428.53;;;10.64;94.96
69971;BME280;57301;50.328;8.542;2023-05-16T05:13:33;98428.53;;;10.64;95.09
69971;BME280;57301;50.328;8.542;2023-05-16T05:15:59;98431.84;;;10.66;95.14
69971;BME280;57301;50.328;8.542;2023-05-16T05:18:27;98426.84;;;10.63;93.89
69971;BME280;57301;50.328;8.542;2023-05-16T05:20:53;98432.69;;;10.66;94.72
69971;BME280;57301;50.328;8.542;2023-05-16T05:23:20;98429.22;;;10.48;93.30
69971;BME280;57301;50.328;8.542;2023-05-16T05:25:47;98438.44;;;10.54;93.04
69971;BME280;57301;50.328;8.542;2023-05-16T05:28:13;98443.25;;;10.50;94.03
69971;BME280;57301;50.328;8.542;2023-05-16T05:30:40;98449.94;;;10.54;94.10
69971;BME280;57301;50.328;8.542;2023-05-16T05:33:10;98452.22;;;10.49;94.09
69971;BME280;57301;50.328;8.542;2023-05-16T05:35:37;98458.03;;;10.44;91.37
69971;BME280;57301;50.328;8.542;2023-05-16T05:38:04;98465.72;;;10.47;92.34
69971;BME280;57301;50.328;8.542;2023-05-16T05:40:31;98461.53;;;10.27;91.21
69971;BME280;57301;50.328;8.542;2023-05-16T05:42:57;98466.88;;;10.27;91.51
69971;BME280;57301;50.328;8.542;2023-05-16T05:45:24;98461.84;;;10.24;91.84
69971;BME280;57301;50.328;8.542;2023-05-16T05:47:51;98468.22;;;10.13;91.17
69971;BME280;57301;50.328;8.542;2023-05-16T05:50:17;98472.72;;;10.13;90.98
69971;BME280;57301;50.328;8.542;2023-05-16T05:52:44;98469.72;;;10.16;91.62
69971;BME280;57301;50.328;8.542;2023-05-16T05:55:11;98478.41;;;10.18;91.57
69971;BME280;57301;50.328;8.542;2023-05-16T05:57:38;98474.38;;;10.14;92.36
69971;BME280;57301;50.328;8.542;2023-05-16T06:00:05;98478.16;;;10.11;90.46
69971;BME280;57301;50.328;8.542;2023-05-16T06:02:32;98491.19;;;10.14;90.69
69971;BME280;57301;50.328;8.542;2023-05-16T06:04:59;98488.00;;;10.11;91.25
69971;BME280;57301;50.328;8.542;2023-05-16T06:07:25;98503.59;;;10.06;91.48
69971;BME280;57301;50.328;8.542;2023-05-16T06:09:52;98505.97;;;10.09;91.38
69971;BME280;57301;50.328;8.542;2023-05-16T06:12:18;98508.19;;;10.13;92.15
69971;BME280;57301;50.328;8.542;2023-05-16T06:14:45;98510.69;;;10.15;92.90
69971;BME280;57301;50.328;8.542;2023-05-16T06:17:12;98513.59;;;10.21;94.37
69971;BME280;57301;50.328;8.542;2023-05-16T06:19:38;98520.72;;;10.03;94.30
69971;BME280;57301;50.328;8.542;2023-05-16T06:22:05;98518.66;;;9.97;93.04
69971;BME280;57301;50.328;8.542;2023-05-16T06:24:31;98516.47;;;10.10;93.39
69971;BME280;57301;50.328;8.542;2023-05-16T06:26:58;98534.72;;;10.05;94.58
69971;BME280;57301;50.328;8.542;2023-05-16T06:29:24;98527.78;;;10.12;94.79
69971;BME280;57301;50.328;8.542;2023-05-16T06:31:51;98530.78;;;10.09;92.72
69971;BME280;57301;50.328;8.542;2023-05-16T06:34:17;98531.00;;;10.16;94.26
69971;BME280;57301;50.328;8.542;2023-05-16T06:36:44;98538.63;;;10.11;94.83
69971;BME280;57301;50.328;8.542;2023-05-16T06:39:10;98540.13;;;9.95;93.42
69971;BME280;57301;50.328;8.542;2023-05-16T06:41:37;98539.59;;;10.10;93.70
69971;BME280;57301;50.328;8.542;2023-05-16T06:44:04;98545.56;;;9.94;92.02
69971;BME280;57301;50.328;8.542;2023-05-16T06:46:30;98547.22;;;9.77;92.86
69971;BME280;57301;50.328;8.542;2023-05-16T06:48:58;98547.50;;;9.74;92.14
69971;BME280;57301;50.328;8.542;2023-05-16T06:51:24;98554.03;;;9.89;92.89
69971;BME280;57301;50.328;8.542;2023-05-16T06:53:52;98557.28;;;9.83;93.30
69971;BME280;57301;50.328;8.542;2023-05-16T06:56:18;98547.63;;;9.82;93.62
69971;BME280;57301;50.328;8.542;2023-05-16T06:58:45;98557.72;;;9.79;93.83
69971;BME280;57301;50.328;8.542;2023-05-16T07:01:11;98551.25;;;9.81;94.09
69971;BME280;57301;50.328;8.542;2023-05-16T07:03:38;98565.47;;;9.72;92.73
69971;BME280;57301;50.328;8.542;2023-05-16T07:06:05;98571.38;;;9.66;92.27
69971;BME280;57301;50.328;8.542;2023-05-16T07:08:32;98573.03;;;9.67;93.17
69971;BME280;57301;50.328;8.542;2023-05-16T07:11:01;98578.69;;;9.64;94.44
69971;BME280;57301;50.328;8.542;2023-05-16T07:13:27;98574.13;;;9.37;92.18
69971;BME280;57301;50.328;8.542;2023-05-16T07:15:54;98581.56;;;9.33;92.95
69971;BME280;57301;50.328;8.542;2023-05-16T07:18:20;98585.91;;;9.34;94.46
69971;BME280;57301;50.328;8.542;2023-05-16T07:20:47;98585.19;;;9.32;93.42
69971;BME280;57301;50.328;8.542;2023-05-16T07:23:13;98597.78;;;9.40;93.47
69971;BME280;57301;50.328;8.542;2023-05-16T07:25:40;98603.81;;;9.32;93.55
69971;BME280;57301;50.328;8.542;2023-05-16T07:28:07;98609.00;;;9.34;92.45
69971;BME280;57301;50.328;8.542;2023-05-16T07:30:33;98610.97;;;9.32;92.38
69971;BME280;57301;50.328;8.542;2023-05-16T07:33:00;98618.56;;;9.17;91.12
69971;BME280;57301;50.328;8.542;2023-05-16T07:35:27;98624.31;;;9.03;92.28
69971;BME280;57301;50.328;8.542;2023-05-16T07:37:54;98617.97;;;9.13;91.95
69971;BME280;57301;50.328;8.542;2023-05-16T07:40:21;98629.88;;;9.19;92.74
69971;BME280;57301;50.328;8.542;2023-05-16T07:42:51;98636.31;;;9.26;92.27
69971;BME280;57301;50.328;8.542;2023-05-16T07:45:17;98642.06;;;9.31;93.10
69971;BME280;57301;50.328;8.542;2023-05-16T07:47:44;98637.16;;;9.27;93.35
69971;BME280;57301;50.328;8.542;2023-05-16T07:50:11;98639.66;;;9.38;93.03
69971;BME280;57301;50.328;8.542;2023-05-16T07:52:38;98635.69;;;9.61;93.39
69971;BME280;57301;50.328;8.542;2023-05-16T07:55:05;98634.13;;;9.78;92.32
69971;BME280;57301;50.328;8.542;2023-05-16T07:57:32;98633.03;;;9.61;89.74
69971;BME280;57301;50.328;8.542;2023-05-16T07:59:58;98642.84;;;9.71;90.57
69971;BME280;57301;50.328;8.542;2023-05-16T08:02:25;98639.25;;;9.89;90.14
69971;BME280;57301;50.328;8.542;2023-05-16T08:04:56;98645.25;;;10.01;89.31
69971;BME280;57301;50.328;8.542;2023-05-16T08:07:25;98645.53;;;9.98;89.01
69971;BME280;57301;50.328;8.542;2023-05-16T08:09:52;98644.53;;;9.99;89.87
69971;BME280;57301;50.328;8.542;2023-05-16T08:12:19;98644.13;;;9.94;87.96
69971;BME280;57301;50.328;8.542;2023-05-16T08:14:45;98647.84;;;9.83;89.33
69971;BME280;57301;50.328;8.542;2023-05-16T08:17:12;98641.41;;;9.76;88.11
69971;BME280;57301;50.328;8.542;2023-05-16T08:19:38;98638.84;;;9.84;87.02
69971;BME280;57301;50.328;8.542;2023-05-16T08:22:06;98639.00;;;9.83;87.30
69971;BME280;57301;50.328;8.542;2023-05-16T08:24:34;98644.19;;;10.12;84.81
69971;BME280;57301;50.328;8.542;2023-05-16T08:27:01;98652.75;;;10.15;86.25
69971;BME280;57301;50.328;8.542;2023-05-16T08:29:27;98645.94;;;10.40;85.01
69971;BME280;57301;50.328;8.542;2023-05-16T08:31:54;98641.28;;;10.42;84.95
69971;BME280;57301;50.328;8.542;2023-05-16T08:34:21;98641.44;;;10.41;83.71
69971;BME280;57301;50.328;8.542;2023-05-16T08:36:47;98653.84;;;10.32;83.71
69971;BME280;57301;50.328;8.542;2023-05-16T08:39:14;98656.44;;;10.69;83.75
69971;BME280;57301;50.328;8.542;2023-05-16T08:41:40;98649.47;;;10.59;83.58
69971;BME280;57301;50.328;8.542;2023-05-16T08:44:07;98653.75;;;10.69;81.86
69971;BME280;57301;50.328;8.542;2023-05-16T08:46:35;98654.38;;;10.81;81.51
69971;BME280;57301;50.328;8.542;2023-05-16T08:49:03;98664.06;;;11.18;81.81
69971;BME280;57301;50.328;8.542;2023-05-16T08:51:34;98646.63;;;11.06;81.11
69971;BME280;57301;50.328;8.542;2023-05-16T08:54:11;98645.38;;;11.00;79.65
69971;BME280;57301;50.328;8.542;2023-05-16T08:56:42;98644.84;;;11.14;80.52
69971;BME280;57301;50.328;8.542;2023-05-16T08:59:10;98659.56;;;11.36;81.11
69971;BME280;57301;50.328;8.542;2023-05-16T09:01:37;98667.25;;;10.86;79.58
69971;BME280;57301;50.328;8.542;2023-05-16T09:04:06;98665.34;;;10.78;80.46
69971;BME280;57301;50.328;8.542;2023-05-16T09:06:34;98664.75;;;11.20;80.06
69971;BME280;57301;50.328;8.542;2023-05-16T09:09:00;98649.59;;;11.46;78.04
69971;BME280;57301;50.328;8.542;2023-05-16T09:11:28;98663.63;;;11.66;77.59
69971;BME280;57301;50.328;8.542;2023-05-16T09:13:54;98659.69;;;11.35;79.79
69971;BME280;57301;50.328;8.542;2023-05-16T09:16:21;98666.03;;;10.98;78.62
69971;BME280;57301;50.328;8.542;2023-05-16T09:18:55;98669.38;;;10.82;78.57
69971;BME280;57301;50.328;8.542;2023-05-16T09:21:27;98685.88;;;10.68;79.49
69971;BME280;57301;50.328;8.542;2023-05-16T09:23:53;98674.78;;;10.72;79.97
69971;BME280;57301;50.328;8.542;2023-05-16T09:26:21;98684.72;;;10.98;78.93
69971;BME280;57301;50.328;8.542;2023-05-16T09:28:47;98682.97;;;11.24;76.40
69971;BME280;57301;50.328;8.542;2023-05-16T09:31:21;98677.69;;;11.33;77.27
69971;BME280;57301;50.328;8.542;2023-05-16T09:33:48;98671.31;;;11.69;75.40
69971;BME280;57301;50.328;8.542;2023-05-16T09:36:17;98672.00;;;12.23;75.96
69971;BME280;57301;50.328;8.542;2023-05-16T09:38:44;98674.59;;;11.81;74.08
69971;BME280;57301;50.328;8.542;2023-05-16T09:41:11;98677.28;;;11.63;73.66
69971;BME280;57301;50.328;8.542;2023-05-16T09:43:41;98689.22;;;11.77;75.17
69971;BME280;57301;50.328;8.542;2023-05-16T09:46:15;98681.59;;;11.38;73.94
69971;BME280;57301;50.328;8.542;2023-05-16T09:48:46;98677.75;;;11.41;74.16
69971;BME280;57301;50.328;8.542;2023-05-16T09:51:13;98679.34;;;11.51;74.08
69971;BME280;57301;50.328;8.542;2023-05-16T09:53:40;98677.72;;;11.58;72.59
69971;BME280;57301;50.328;8.542;2023-05-16T09:56:12;98676.34;;;11.72;70.29
69971;BME280;57301;50.328;8.542;2023-05-16T09:58:42;98678.06;;;11.55;67.88
69971;BME280;57301;50.328;8.542;2023-05-16T10:01:10;98684.66;;;11.69;67.87
69971;BME280;57301;50.328;8.542;2023-05-16T10:03:39;98684.31;;;11.90;68.30
69971;BME280;57301;50.328;8.542;2023-05-16T10:06:07;98679.41;;;12.03;67.84
69971;BME280;57301;50.328;8.542;2023-05-16T10:08:36;98685.00;;;12.18;64.57
69971;BME280;57301;50.328;8.542;2023-05-16T10:11:04;98685.94;;;12.43;64.77
69971;BME280;57301;50.328;8.542;2023-05-16T10:13:35;98680.16;;;12.56;63.57
69971;BME280;57301;50.328;8.542;2023-05-16T10:16:07;98684.84;;;12.62;62.69
69971;BME280;57301;50.328;8.542;2023-05-16T10:18:37;98682.91;;;12.88;64.35
69971;BME280;57301;50.328;8.542;2023-05-16T10:21:09;98678.75;;;12.94;61.59
69971;BME280;57301;50.328;8.542;2023-05-16T10:23:40;98677.91;;;12.94;61.39
69971;BME280;57301;50.328;8.542;2023-05-16T10:26:07;98678.94;;;13.17;60.02
69971;BME280;57301;50.328;8.542;2023-05-16T10:28:35;98683.50;;;13.82;62.50
69971;BME280;57301;50.328;8.542;2023-05-16T10:31:02;98682.00;;;13.55;57.59
69971;BME280;57301;50.328;8.542;2023-05-16T10:33:35;98676.81;;;13.53;56.49
69971;BME280;57301;50.328;8.542;2023-05-16T10:36:02;98685.50;;;13.14;56.10
69971;BME280;57301;50.328;8.542;2023-05-16T10:38:31;98684.03;;;13.53;56.15
69971;BME280;57301;50.328;8.542;2023-05-16T10:40:59;98685.22;;;13.58;55.68
69971;BME280;57301;50.328;8.542;2023-05-16T10:43:27;98674.97;;;13.37;55.44
69971;BME280;57301;50.328;8.542;2023-05-16T10:46:01;98670.78;;;13.67;56.23
69971;BME280;57301;50.328;8.542;2023-05-16T10:48:30;98676.47;;;13.89;57.20
69971;BME280;57301;50.328;8.542;2023-05-16T10:50:57;98673.97;;;13.87;55.04
69971;BME280;57301;50.328;8.542;2023-05-16T10:53:40;98678.28;;;13.96;55.59
69971;BME280;57301;50.328;8.542;2023-05-16T10:56:07;98670.91;;;13.90;55.04
69971;BME280;57301;50.328;8.542;2023-05-16T10:58:40;98672.69;;;14.22;55.41
69971;BME280;57301;50.328;8.542;2023-05-16T11:01:22;98671.81;;;14.77;54.45
69971;BME280;57301;50.328;8.542;2023-05-16T11:06:27;98657.00;;;15.13;53.83
69971;BME280;57301;50.328;8.542;2023-05-16T11:11:55;98660.09;;;15.01;51.05
69971;BME280;57301;50.328;8.542;2023-05-16T11:25:05;98658.69;;;15.74;47.91
69971;BME280;57301;50.328;8.542;2023-05-16T11:27:41;98665.19;;;15.57;49.12
69971;BME280;57301;50.328;8.542;2023-05-16T11:30:13;98665.38;;;16.67;50.19
69971;BME280;57301;50.328;8.542;2023-05-16T11:32:44;98660.03;;;14.87;48.89
69971;BME280;57301;50.328;8.542;2023-05-16T11:35:15;98671.16;;;14.75;50.33
69971;BME280;57301;50.328;8.542;2023-05-16T11:37:43;98660.56;;;15.89;45.64
69971;BME280;57301;50.328;8.542;2023-05-16T11:40:11;98659.19;;;15.78;44.55
69971;BME280;57301;50.328;8.542;2023-05-16T11:42:42;98670.19;;;15.83;47.58
69971;BME280;57301;50.328;8.542;2023-05-16T11:45:22;98667.16;;;15.86;44.89
69971;BME280;57301;50.328;8.542;2023-05-16T11:47:50;98658.47;;;16.28;43.25
69971;BME280;57301;50.328;8.542;2023-05-16T11:50:19;98670.94;;;16.95;43.91
69971;BME280;57301;50.328;8.542;2023-05-16T11:52:47;98665.59;;;15.92;45.88
69971;BME280;57301;50.328;8.542;2023-05-16T11:55:15;98659.88;;;16.39;47.75
69971;BME280;57301;50.328;8.542;2023-05-16T11:58:03;98667.50;;;15.68;45.33
69971;BME280;57301;50.328;8.542;2023-05-16T12:00:31;98676.94;;;15.18;44.78
69971;BME280;57301;50.328;8.542;2023-05-16T12:03:02;98673.22;;;16.03;41.77
69971;BME280;57301;50.328;8.542;2023-05-16T12:05:31;98670.47;;;16.91;41.64
69971;BME280;57301;50.328;8.542;2023-05-16T12:08:00;98669.50;;;16.78;40.62
69971;BME280;57301;50.328;8.542;2023-05-16T12:10:30;98663.06;;;16.79;41.28
69971;BME280;57301;50.328;8.542;2023-05-16T12:12:58;98662.72;;;17.46;41.26
69971;BME280;57301;50.328;8.542;2023-05-16T12:15:25;98665.78;;;17.00;41.13
69971;BME280;57301;50.328;8.542;2023-05-16T12:17:52;98666.38;;;15.77;43.87
69971;BME280;57301;50.328;8.542;2023-05-16T12:20:19;98674.59;;;15.61;44.10
69971;BME280;57301;50.328;8.542;2023-05-16T12:22:49;98670.53;;;16.18;44.86
69971;BME280;57301;50.328;8.542;2023-05-16T12:25:32;98671.84;;;17.45;40.42
69971;BME280;57301;50.328;8.542;2023-05-16T12:28:02;98661.00;;;16.81;39.88
69971;BME280;57301;50.328;8.542;2023-05-16T12:30:31;98681.28;;;16.03;41.14
69971;BME280;57301;50.328;8.542;2023-05-16T12:33:08;98667.41;;;16.95;40.34
69971;BME280;57301;50.328;8.542;2023-05-16T12:35:38;98661.56;;;17.55;38.46
69971;BME280;57301;50.328;8.542;2023-05-16T12:38:07;98672.34;;;17.12;39.68
69971;BME280;57301;50.328;8.542;2023-05-16T12:40:39;98665.22;;;17.48;41.67
69971;BME280;57301;50.328;8.542;2023-05-16T12:43:18;98668.75;;;16.10;42.55
69971;BME280;57301;50.328;8.542;2023-05-16T12:45:55;98670.25;;;17.08;40.01
69971;BME280;57301;50.328;8.542;2023-05-16T12:48:28;98676.13;;;18.45;39.70
69971;BME280;57301;50.328;8.542;2023-05-16T12:51:09;98672.16;;;19.70;36.34
69971;BME280;57301;50.328;8.542;2023-05-16T12:53:43;98674.03;;;20.09;33.86
69971;BME280;57301;50.328;8.542;2023-05-16T12:56:27;98673.84;;;16.79;38.61
69971;BME280;57301;50.328;8.542;2023-05-16T12:58:53;98692.38;;;15.85;39.61
69971;BME280;57301;50.328;8.542;2023-05-16T13:01:20;98679.59;;;18.32;36.96
69971;BME280;57301;50.328;8.542;2023-05-16T13:03:47;98683.84;;;18.48;36.17
69971;BME280;57301;50.328;8.542;2023-05-16T13:06:17;98681.38;;;16.24;39.04
69971;BME280;57301;50.328;8.542;2023-05-16T13:08:43;98688.22;;;16.56;40.48
69971;BME280;57301;50.328;8.542;2023-05-16T13:11:11;98688.63;;;16.83;41.21
69971;BME280;57301;50.328;8.542;2023-05-16T13:13:38;98686.03;;;18.31;38.83
69971;BME280;57301;50.328;8.542;2023-05-16T13:16:05;98689.00;;;19.52;36.72
69971;BME280;57301;50.328;8.542;2023-05-16T13:18:32;98686.59;;;21.19;34.33
69971;BME280;57301;50.328;8.542;2023-05-16T13:20:59;98695.22;;;22.05;32.62
69971;BME280;57301;50.328;8.542;2023-05-16T13:23:26;98684.72;;;22.08;34.04
69971;BME280;57301;50.328;8.542;2023-05-16T13:25:52;98686.94;;;19.87;34.42
69971;BME280;57301;50.328;8.542;2023-05-16T13:28:19;98690.84;;;18.08;36.70
69971;BME280;57301;50.328;8.542;2023-05-16T13:30:46;98683.28;;;19.07;34.64